^^
Saratoga-Weather Station Historical Data
 
Daily Summary for July 11, 2020 Units:  Metric    English   Both
Daily Weekly Monthly Yearly
  Current: High: Low: Average:
Temperature: 21.4 °C 29.9 °C 21.4 °C 25.3 °C
Dew Point: 17.9 °C 20 °C 16.5 °C 18.3 °C
Humidity: 80.3% 80.3% 50.7% 66%
Wind Speed: 9km/h 36.9km/h 0km/h 9.9km/h
Wind Gust: 14.5km/h 46.7km/h - -
WindEast - - SSW
Pressure: 1015.0 hPa 1015.0 hPa 1009.7 hPa -
Precipitation: 0.0 mm      
 
 
Tabular Data for July 11, 2020
Time Temperature Dew Point Pressure Wind Wind Speed Wind Gust Humidity Rainfall Rate (Hourly) solar
00:04 26.2 °C 18.1 °C 1011.5 hPa WNW 10.3 km/h 11.3 km/h 60.8% 0.0 mm 0 W/m2
00:09 26.3 °C 18.1 °C 1011.5 hPa West 8.3 km/h 14.5 km/h 61% 0.0 mm 0 W/m2
00:14 26.2 °C 18.2 °C 1011.3 hPa WNW 8.1 km/h 11.3 km/h 61.2% 0.0 mm 0 W/m2
00:19 26.2 °C 18.4 °C 1011.2 hPa NW 8.2 km/h 11.3 km/h 62% 0.0 mm 0 W/m2
00:24 26.2 °C 18.5 °C 1011.1 hPa WNW 7.6 km/h 12.9 km/h 62.3% 0.0 mm 0 W/m2
00:29 26.2 °C 18.6 °C 1011.0 hPa WNW 7.1 km/h 14.5 km/h 63% 0.0 mm 0 W/m2
00:34 26.2 °C 18.6 °C 1011.1 hPa West 8 km/h 9.7 km/h 63% 0.0 mm 0 W/m2
00:39 26.2 °C 18.6 °C 1011.2 hPa WSW 11.9 km/h 9.7 km/h 63% 0.0 mm 0 W/m2
00:44 26 °C 18.5 °C 1011.2 hPa WSW 9.7 km/h 14.5 km/h 63.7% 0.0 mm 0 W/m2
00:49 25.6 °C 18.3 °C 1011.1 hPa WSW 10.5 km/h 14.5 km/h 64% 0.0 mm 0 W/m2
00:54 25.4 °C 18.3 °C 1011.0 hPa West 9.4 km/h 12.9 km/h 64.5% 0.0 mm 0 W/m2
00:59 25.3 °C 18.3 °C 1010.9 hPa West 8 km/h 12.9 km/h 65.2% 0.0 mm 0 W/m2
01:04 25.2 °C 18.4 °C 1010.7 hPa WNW 4.6 km/h 9.7 km/h 66.2% 0.0 mm 0 W/m2
01:09 25.2 °C 18.6 °C 1010.9 hPa WSW 6.7 km/h 7.2 km/h 66.8% 0.0 mm 0 W/m2
01:14 25.1 °C 18.7 °C 1010.9 hPa WSW 12.5 km/h 12.9 km/h 67.5% 0.0 mm 0 W/m2
01:19 24.9 °C 18.7 °C 1010.9 hPa West 10.9 km/h 16.1 km/h 68.7% 0.0 mm 0 W/m2
01:24 24.6 °C 18.7 °C 1010.9 hPa WSW 8 km/h 11.3 km/h 69.7% 0.0 mm 0 W/m2
01:29 24.5 °C 18.8 °C 1011.1 hPa WSW 8.8 km/h 9.7 km/h 70.7% 0.0 mm 0 W/m2
01:34 24.4 °C 18.9 °C 1011.1 hPa WSW 11.9 km/h 12.9 km/h 71.5% 0.0 mm 0 W/m2
01:39 24.3 °C 19.1 °C 1011.1 hPa West 7.9 km/h 12.9 km/h 72.8% 0.0 mm 0 W/m2
01:44 24.3 °C 19.3 °C 1011.1 hPa West 8.9 km/h 8 km/h 73.7% 0.0 mm 0 W/m2
01:49 24.2 °C 19.4 °C 1011.1 hPa West 10.4 km/h 11.3 km/h 74.8% 0.0 mm 0 W/m2
01:54 24.1 °C 19.5 °C 1011.1 hPa West 7.9 km/h 11.3 km/h 75.3% 0.0 mm 0 W/m2
01:59 24.1 °C 19.6 °C 1011.0 hPa WSW 8.8 km/h 9.7 km/h 76% 0.0 mm 0 W/m2
02:03 24.1 °C 19.6 °C 1010.9 hPa WSW 7.6 km/h 11.3 km/h 76% 0.0 mm 0 W/m2
02:09 24.1 °C 19.6 °C 1010.8 hPa West 6.3 km/h 9.7 km/h 76% 0.0 mm 0 W/m2
02:14 24.1 °C 19.6 °C 1010.7 hPa West 5 km/h 6.4 km/h 76% 0.0 mm 0 W/m2
02:19 24.3 °C 19.6 °C 1010.4 hPa West 2.6 km/h 6.4 km/h 75.2% 0.0 mm 0 W/m2
02:24 24.5 °C 19.5 °C 1010.3 hPa West 4.5 km/h 4.8 km/h 74.2% 0.0 mm 0 W/m2
02:29 24.6 °C 19.6 °C 1010.2 hPa West 3.6 km/h 6.4 km/h 74% 0.0 mm 0 W/m2
02:34 24.6 °C 19.8 °C 1010.2 hPa West 2.5 km/h 6.4 km/h 74.6% 0.0 mm 0 W/m2
02:39 24.3 °C 19.8 °C 1010.3 hPa WSW 5.2 km/h 5.5 km/h 76% 0.0 mm 0 W/m2
02:44 24.1 °C 19.8 °C 1010.4 hPa WSW 8.5 km/h 8 km/h 77.1% 0.0 mm 0 W/m2
02:49 23.9 °C 19.8 °C 1010.5 hPa WSW 9 km/h 11.3 km/h 77.8% 0.0 mm 0 W/m2
02:54 23.9 °C 19.8 °C 1010.6 hPa WSW 12.1 km/h 11.3 km/h 78% 0.0 mm 0 W/m2
02:59 23.9 °C 19.8 °C 1010.5 hPa WSW 11.6 km/h 14.5 km/h 78% 0.0 mm 0 W/m2
03:04 23.8 °C 19.8 °C 1010.6 hPa West 11.3 km/h 14.5 km/h 78% 0.0 mm 0 W/m2
03:09 23.7 °C 19.9 °C 1010.6 hPa WSW 9.2 km/h 12.9 km/h 79% 0.0 mm 0 W/m2
03:14 23.6 °C 19.8 °C 1010.4 hPa West 10.3 km/h 11.3 km/h 79% 0.0 mm 0 W/m2
03:19 23.6 °C 19.7 °C 1010.4 hPa WSW 10.3 km/h 12.9 km/h 79% 0.0 mm 0 W/m2
03:24 23.5 °C 19.7 °C 1010.2 hPa WSW 11.3 km/h 12.9 km/h 79% 0.0 mm 0 W/m2
03:29 23.5 °C 19.7 °C 1010.3 hPa WSW 10.6 km/h 11.3 km/h 79% 0.0 mm 0 W/m2
03:34 23.5 °C 19.7 °C 1010.3 hPa WSW 9 km/h 12.9 km/h 79% 0.0 mm 0 W/m2
03:39 23.6 °C 19.7 °C 1010.3 hPa WSW 9.6 km/h 11.3 km/h 79% 0.0 mm 0 W/m2
03:44 23.6 °C 19.8 °C 1010.2 hPa West 9.1 km/h 11.3 km/h 79% 0.0 mm 0 W/m2
03:49 23.6 °C 19.8 °C 1010.1 hPa WSW 9 km/h 11.3 km/h 79% 0.0 mm 0 W/m2
03:54 23.6 °C 19.6 °C 1010.1 hPa WSW 9 km/h 12.9 km/h 78.2% 0.0 mm 0 W/m2
03:58 23.6 °C 19.5 °C 1010.1 hPa WSW 5.7 km/h 11.3 km/h 77.7% 0.0 mm 0 W/m2
04:04 23.7 °C 19.4 °C 1010.2 hPa West 8 km/h 9.7 km/h 77% 0.0 mm 0 W/m2
04:09 23.6 °C 19.4 °C 1010.1 hPa West 6.8 km/h 11.3 km/h 77% 0.0 mm 0 W/m2
04:14 23.6 °C 19.2 °C 1010.2 hPa West 9.2 km/h 9.7 km/h 76.6% 0.0 mm 0 W/m2
04:19 23.7 °C 19.2 °C 1010.0 hPa West 6.4 km/h 11.3 km/h 76.3% 0.0 mm 0 W/m2
04:24 23.7 °C 19.2 °C 1009.9 hPa West 6.1 km/h 8 km/h 76% 0.0 mm 0 W/m2
04:29 23.8 °C 19.2 °C 1009.9 hPa WSW 5.3 km/h 8 km/h 75.8% 0.0 mm 0 W/m2
04:34 23.8 °C 19.2 °C 1009.8 hPa West 5.4 km/h 6.4 km/h 75.3% 0.0 mm 0 W/m2
04:38 23.8 °C 19.1 °C 1009.8 hPa West 7 km/h 8 km/h 74.8% 0.0 mm 0 W/m2
04:44 23.8 °C 19.1 °C 1009.7 hPa West 6.3 km/h 8 km/h 75% 0.0 mm 0 W/m2
04:49 23.8 °C 19.1 °C 1009.8 hPa West 6 km/h 8 km/h 75% 0.0 mm 0 W/m2
04:54 23.7 °C 19.1 °C 1009.9 hPa West 6.1 km/h 6.4 km/h 75.3% 0.0 mm 0 W/m2
04:59 23.7 °C 19.2 °C 1009.9 hPa West 4.8 km/h 8 km/h 76% 0.0 mm 0 W/m2
05:04 23.6 °C 19.1 °C 1009.8 hPa West 4 km/h 4.8 km/h 76% 0.0 mm 0 W/m2
05:09 23.5 °C 19.2 °C 1009.9 hPa West 2.4 km/h 4.8 km/h 76.5% 0.0 mm 0 W/m2
05:14 23.5 °C 19.2 °C 1009.9 hPa Calm   4.8 km/h 77% 0.0 mm 0 W/m2
05:19 23.5 °C 19 °C 1010.0 hPa West 2.3 km/h 2.9 km/h 76.1% 0.0 mm 0 W/m2
05:24 23.5 °C 19.1 °C 1010.1 hPa West 5.5 km/h 8 km/h 76.5% 0.0 mm 0 W/m2
05:29 23.5 °C 19.1 °C 1010.1 hPa WNW 6 km/h 6.4 km/h 76.4% 0.0 mm 0 W/m2
05:34 23.5 °C 19.2 °C 1010.2 hPa West 6.4 km/h 8 km/h 77% 0.0 mm 0 W/m2
05:38 23.4 °C 19.2 °C 1010.2 hPa West 8.9 km/h 9.7 km/h 77% 0.0 mm 0 W/m2
05:44 23.4 °C 19.2 °C 1010.2 hPa West 8 km/h 12.9 km/h 77.5% 0.0 mm 0 W/m2
05:49 23.3 °C 19.2 °C 1010.2 hPa West 7.4 km/h 9.7 km/h 78% 0.0 mm 0 W/m2
05:53 23.2 °C 19.2 °C 1010.3 hPa WNW 8.7 km/h 9.7 km/h 78% 0.0 mm 0 W/m2
05:59 23.2 °C 19.2 °C 1010.3 hPa WNW 7.5 km/h 11.3 km/h 78% 0.0 mm 0 W/m2
06:04 23.3 °C 18.9 °C 1010.3 hPa WNW 8.2 km/h 12.9 km/h 76.3% 0.0 mm 5 W/m2
06:09 23.4 °C 18.6 °C 1010.3 hPa West 8.3 km/h 9.2 km/h 74.4% 0.0 mm 7 W/m2
06:14 23.5 °C 18.3 °C 1010.3 hPa WNW 8.2 km/h 11.3 km/h 72.5% 0.0 mm 12 W/m2
06:19 23.6 °C 18 °C 1010.3 hPa West 7 km/h 9.7 km/h 70.8% 0.0 mm 14 W/m2
06:24 23.7 °C 17.8 °C 1010.3 hPa West 8.7 km/h 8 km/h 69.6% 0.0 mm 14 W/m2
06:29 23.8 °C 17.7 °C 1010.3 hPa West 8.2 km/h 11.3 km/h 69% 0.0 mm 16 W/m2
06:34 23.8 °C 17.7 °C 1010.3 hPa West 7.4 km/h 11.3 km/h 69% 0.0 mm 21 W/m2
06:39 23.7 °C 17.8 °C 1010.3 hPa West 8.3 km/h 9.7 km/h 69.5% 0.0 mm 23 W/m2
06:44 23.7 °C 17.9 °C 1010.3 hPa West 6.6 km/h 11.3 km/h 70% 0.0 mm 25 W/m2
06:49 23.6 °C 18 °C 1010.3 hPa West 8.4 km/h 9.7 km/h 70.7% 0.0 mm 30 W/m2
06:54 23.6 °C 18 °C 1010.3 hPa West 7.1 km/h 9.7 km/h 71% 0.0 mm 46 W/m2
06:59 23.5 °C 18.1 °C 1010.4 hPa West 7.8 km/h 9.7 km/h 71.3% 0.0 mm 72 W/m2
07:03 23.5 °C 18.2 °C 1010.4 hPa West 7.3 km/h 9.7 km/h 72.4% 0.0 mm 72 W/m2
07:09 23.4 °C 18.3 °C 1010.5 hPa West 7.6 km/h 9.7 km/h 73% 0.0 mm 76 W/m2
07:14 23.4 °C 18.2 °C 1010.5 hPa West 5.8 km/h 9.7 km/h 72.7% 0.0 mm 76 W/m2
07:19 23.5 °C 18.1 °C 1010.5 hPa WNW 7.7 km/h 8 km/h 71.6% 0.0 mm 90 W/m2
07:24 23.6 °C 18.1 °C 1010.6 hPa WNW 7.9 km/h 11.3 km/h 71% 0.0 mm 111 W/m2
07:29 23.7 °C 18.2 °C 1010.6 hPa NW 7.5 km/h 9.7 km/h 71.5% 0.0 mm 130 W/m2
07:34 23.7 °C 18.1 °C 1010.6 hPa NW 10.6 km/h 12.9 km/h 71% 0.0 mm 130 W/m2
07:39 23.7 °C 18.1 °C 1010.5 hPa NW 8.5 km/h 12.9 km/h 70.6% 0.0 mm 116 W/m2
07:44 23.8 °C 18 °C 1010.5 hPa WNW 11.3 km/h 14.5 km/h 69.8% 0.0 mm 95 W/m2
07:49 23.8 °C 17.8 °C 1010.4 hPa NW 8.6 km/h 14.5 km/h 69.2% 0.0 mm 144 W/m2
07:54 23.9 °C 17.8 °C 1010.4 hPa West 6.7 km/h 11.3 km/h 68.7% 0.0 mm 211 W/m2
07:59 24.1 °C 17.7 °C 1010.4 hPa WNW 8.3 km/h 11.3 km/h 67.1% 0.0 mm 220 W/m2
08:04 24.4 °C 17.7 °C 1010.4 hPa WNW 9.4 km/h 9.7 km/h 66.2% 0.0 mm 227 W/m2
08:09 24.5 °C 17.6 °C 1010.5 hPa West 10.7 km/h 12.9 km/h 65.3% 0.0 mm 237 W/m2
08:14 24.6 °C 17.5 °C 1010.5 hPa West 14.7 km/h 14.5 km/h 64.7% 0.0 mm 241 W/m2
08:19 24.6 °C 17.6 °C 1010.5 hPa WNW 11 km/h 19.3 km/h 65% 0.0 mm 244 W/m2
08:24 24.6 °C 17.7 °C 1010.5 hPa West 9.7 km/h 12.9 km/h 65.5% 0.0 mm 258 W/m2
08:29 24.7 °C 17.7 °C 1010.5 hPa West 16.2 km/h 12.9 km/h 65% 0.0 mm 287 W/m2
08:34 24.6 °C 17.6 °C 1010.5 hPa West 13 km/h 19.3 km/h 64.8% 0.0 mm 294 W/m2
08:39 24.6 °C 17.6 °C 1010.6 hPa West 14.2 km/h 14.5 km/h 65% 0.0 mm 299 W/m2
08:43 24.7 °C 17.6 °C 1010.6 hPa WSW 15.4 km/h 16.1 km/h 64.8% 0.0 mm 320 W/m2
08:49 24.8 °C 17.7 °C 1010.6 hPa WSW 13.7 km/h 19.3 km/h 64.9% 0.0 mm 350 W/m2
08:54 24.9 °C 17.7 °C 1010.5 hPa West 12.4 km/h 19.3 km/h 64.3% 0.0 mm 369 W/m2
08:59 25 °C 17.5 °C 1010.5 hPa West 13 km/h 14.5 km/h 63% 0.0 mm 371 W/m2
09:04 25.2 °C 17.2 °C 1010.5 hPa WNW 13.9 km/h 14.5 km/h 61.2% 0.0 mm 378 W/m2
09:09 25.4 °C 17.2 °C 1010.6 hPa West 11.9 km/h 16.1 km/h 60.7% 0.0 mm 374 W/m2
09:14 25.5 °C 17.2 °C 1010.6 hPa West 11.1 km/h 14.5 km/h 60% 0.0 mm 380 W/m2
09:19 25.6 °C 17.1 °C 1010.6 hPa West 12.9 km/h 19.3 km/h 59.3% 0.0 mm 388 W/m2
09:24 25.8 °C 17.2 °C 1010.6 hPa WNW 10.1 km/h 16.1 km/h 59.2% 0.0 mm 399 W/m2
09:29 25.8 °C 17.1 °C 1010.6 hPa West 12.4 km/h 16.1 km/h 58.8% 0.0 mm 406 W/m2
09:34 25.8 °C 17.2 °C 1010.6 hPa West 12.5 km/h 16.1 km/h 59% 0.0 mm 418 W/m2
09:38 25.9 °C 16.9 °C 1010.6 hPa West 12 km/h 14.5 km/h 57.6% 0.0 mm 438 W/m2
09:44 26 °C 16.7 °C 1010.6 hPa West 9.7 km/h 12.9 km/h 56.8% 0.0 mm 461 W/m2
09:49 26.3 °C 16.7 °C 1010.7 hPa NW 12.6 km/h 11.3 km/h 55.4% 0.0 mm 492 W/m2
09:54 26.4 °C 16.8 °C 1010.7 hPa NW 11.2 km/h 16.1 km/h 55.3% 0.0 mm 520 W/m2
09:59 26.5 °C 16.6 °C 1010.7 hPa NW 14.3 km/h 14.5 km/h 54.6% 0.0 mm 538 W/m2
10:04 26.5 °C 16.7 °C 1010.8 hPa NW 15 km/h 16.1 km/h 55% 0.0 mm 570 W/m2
10:08 26.6 °C 16.7 °C 1010.8 hPa WNW 14.7 km/h 16.1 km/h 54.6% 0.0 mm 578 W/m2
10:14 26.6 °C 16.8 °C 1010.8 hPa NW 11.2 km/h 19.3 km/h 55% 0.0 mm 596 W/m2
10:19 26.8 °C 17.2 °C 1010.8 hPa WNW 9.4 km/h 14.5 km/h 55.7% 0.0 mm 608 W/m2
10:23 26.9 °C 16.9 °C 1010.8 hPa WNW 12.6 km/h 11.3 km/h 54.4% 0.0 mm 613 W/m2
10:29 27 °C 16.8 °C 1010.8 hPa West 11.9 km/h 14.5 km/h 53.7% 0.0 mm 626 W/m2
10:34 27 °C 17 °C 1010.8 hPa West 13.5 km/h 16.1 km/h 54.3% 0.0 mm 652 W/m2
10:39 27.2 °C 17.2 °C 1010.9 hPa West 11.8 km/h 16.1 km/h 54.6% 0.0 mm 656 W/m2
10:44 27.2 °C 17.2 °C 1010.8 hPa West 12.5 km/h 16.1 km/h 54.3% 0.0 mm 649 W/m2
10:49 27.4 °C 17.5 °C 1010.8 hPa WSW 10.7 km/h 16.1 km/h 54.7% 0.0 mm 684 W/m2
10:54 27.4 °C 17.3 °C 1010.8 hPa WSW 12.9 km/h 12.7 km/h 54.2% 0.0 mm 726 W/m2
10:59 27.5 °C 17.4 °C 1010.8 hPa WNW 12.2 km/h 16.1 km/h 54.2% 0.0 mm 763 W/m2
11:04 27.4 °C 17.3 °C 1010.9 hPa West 13.9 km/h 16.1 km/h 53.8% 0.0 mm 729 W/m2
11:08 27.4 °C 17.4 °C 1010.9 hPa West 11.7 km/h 16.1 km/h 54.4% 0.0 mm 735 W/m2
11:14 27.4 °C 17.3 °C 1010.8 hPa WSW 12.2 km/h 14.5 km/h 54% 0.0 mm 404 W/m2
11:19 27.5 °C 17.6 °C 1010.9 hPa WNW 9.3 km/h 14.5 km/h 54.7% 0.0 mm 788 W/m2
11:23 27.8 °C 17.6 °C 1010.9 hPa WSW 9.9 km/h 12.9 km/h 54% 0.0 mm 738 W/m2
11:29 27.7 °C 18 °C 1010.9 hPa WSW 11.2 km/h 14.5 km/h 55.5% 0.0 mm 715 W/m2
11:33 27.7 °C 18.1 °C 1010.9 hPa SW 12.7 km/h 12.9 km/h 55.8% 0.0 mm 647 W/m2
11:39 27.7 °C 18 °C 1010.9 hPa West 9.6 km/h 14.5 km/h 55.7% 0.0 mm 777 W/m2
11:44 27.8 °C 18.1 °C 1010.9 hPa WSW 8.7 km/h 11.3 km/h 55.8% 0.0 mm 782 W/m2
11:48 27.9 °C 18.5 °C 1011.0 hPa West 8.9 km/h 12.9 km/h 56.8% 0.0 mm 786 W/m2
11:54 27.9 °C 18.3 °C 1010.9 hPa SW 9 km/h 9.7 km/h 55.9% 0.0 mm 789 W/m2
11:58 28.1 °C 18.1 °C 1010.9 hPa SSW 9.9 km/h 12.9 km/h 54.6% 0.0 mm 798 W/m2
12:04 28.3 °C 18.4 °C 1010.9 hPa WSW 9.8 km/h 12.9 km/h 55% 0.0 mm 807 W/m2
12:09 28.3 °C 18.3 °C 1011.0 hPa SW 8.4 km/h 11.3 km/h 54.7% 0.0 mm 816 W/m2
12:14 28.3 °C 18 °C 1011.0 hPa SW 9.6 km/h 11.3 km/h 53.7% 0.0 mm 821 W/m2
12:19 28.5 °C 17.9 °C 1011.0 hPa SW 7.6 km/h 11.3 km/h 52.6% 0.0 mm 824 W/m2
12:24 28.6 °C 17.8 °C 1011.0 hPa SW 8.6 km/h 11.3 km/h 52% 0.0 mm 826 W/m2
12:29 28.7 °C 17.9 °C 1011.1 hPa SW 8 km/h 11.3 km/h 52% 0.0 mm 831 W/m2
12:34 28.6 °C 18 °C 1011.1 hPa West 5.7 km/h 11.3 km/h 52.8% 0.0 mm 831 W/m2
12:39 28.8 °C 18.1 °C 1011.0 hPa SW 10.5 km/h 12.9 km/h 52.5% 0.0 mm 830 W/m2
12:44 28.8 °C 17.9 °C 1011.0 hPa South 11.3 km/h 12.9 km/h 51.7% 0.0 mm 835 W/m2
12:49 29.1 °C 17.9 °C 1010.9 hPa SSW 9 km/h 12.9 km/h 51% 0.0 mm 835 W/m2
12:54 29.3 °C 18 °C 1010.9 hPa SSW 9.8 km/h 11.3 km/h 50.7% 0.0 mm 838 W/m2
12:59 29.1 °C 18.3 °C 1010.8 hPa SW 11 km/h 11.3 km/h 52.3% 0.0 mm 858 W/m2
13:04 29.1 °C 18.3 °C 1010.8 hPa SSW 9.1 km/h 12.9 km/h 52.2% 0.0 mm 874 W/m2
13:09 29.1 °C 18.4 °C 1010.8 hPa SSW 13.6 km/h 12.1 km/h 52.5% 0.0 mm 870 W/m2
13:14 29.3 °C 18.7 °C 1010.8 hPa SSW 11.3 km/h 19.3 km/h 53% 0.0 mm 888 W/m2
13:19 29.3 °C 18.7 °C 1010.7 hPa SSW 13.8 km/h 14.5 km/h 53% 0.0 mm 891 W/m2
13:24 29.1 °C 18.7 °C 1010.6 hPa SSW 13 km/h 16.1 km/h 53.7% 0.0 mm 877 W/m2
13:29 29.1 °C 18.9 °C 1010.5 hPa SSW 11 km/h 16.1 km/h 54.3% 0.0 mm 879 W/m2
13:34 29.4 °C 19.3 °C 1010.5 hPa West 9.4 km/h 11.3 km/h 54.4% 0.0 mm 882 W/m2
13:39 29.4 °C 19.4 °C 1010.4 hPa WSW 10.5 km/h 14.5 km/h 54.8% 0.0 mm 882 W/m2
13:44 29.2 °C 19.4 °C 1010.3 hPa WSW 10.2 km/h 14.5 km/h 55.3% 0.0 mm 874 W/m2
13:49 29.2 °C 19.6 °C 1010.2 hPa SW 8.6 km/h 9.7 km/h 56.3% 0.0 mm 874 W/m2
13:54 29.5 °C 19.7 °C 1010.2 hPa SSW 13.3 km/h 14.5 km/h 55.8% 0.0 mm 888 W/m2
13:59 29.6 °C 19.5 °C 1010.0 hPa SW 8.3 km/h 16.1 km/h 54.8% 0.0 mm 893 W/m2
14:04 29.6 °C 19.4 °C 1010.0 hPa South 9.7 km/h 11.9 km/h 54.5% 0.0 mm 900 W/m2
14:09 29.5 °C 19 °C 1010.0 hPa SW 11.3 km/h 19.3 km/h 53.3% 0.0 mm 907 W/m2
14:14 29.6 °C 19 °C 1010.2 hPa SW 7.8 km/h 14.5 km/h 52.8% 0.0 mm 981 W/m2
14:19 29.7 °C 19.3 °C 1010.2 hPa SW 6.6 km/h 12.9 km/h 53.7% 0.0 mm 1011 W/m2
14:24 29.4 °C 18.9 °C 1010.2 hPa SSW 10.8 km/h 10.1 km/h 53.2% 0.0 mm 1150 W/m2
14:29 29.5 °C 19.2 °C 1010.0 hPa SW 12 km/h 14.5 km/h 53.8% 0.0 mm 1150 W/m2
14:33 29.9 °C 19.5 °C 1010.1 hPa SW 13.9 km/h 14.5 km/h 54% 0.0 mm 798 W/m2
14:39 29.6 °C 19.5 °C 1010.4 hPa WSW 9.6 km/h 14.5 km/h 54.8% 0.0 mm 568 W/m2
14:44 29.3 °C 19.6 °C 1010.4 hPa West 8.9 km/h 11.3 km/h 55.8% 0.0 mm 192 W/m2
14:49 29.3 °C 19.7 °C 1010.5 hPa West 11.6 km/h 14.5 km/h 56.3% 0.0 mm 172 W/m2
14:54 29.2 °C 19.9 °C 1010.6 hPa West 12.4 km/h 12.9 km/h 57.3% 0.0 mm 207 W/m2
14:59 29.1 °C 20 °C 1010.6 hPa WNW 13.8 km/h 14.5 km/h 58% 0.0 mm 218 W/m2
15:04 28.8 °C 19.9 °C 1010.9 hPa NW 12.5 km/h 16.1 km/h 58.9% 0.0 mm 171 W/m2
15:08 27.8 °C 18.3 °C 1011.3 hPa NNW 36.9 km/h 37 km/h 56.4% 0.0 mm 98 W/m2
15:14 24.6 °C 16.7 °C 1011.6 hPa NNW 33.5 km/h 46.7 km/h 61.5% 0.0 mm 183 W/m2
15:19 22.7 °C 16.6 °C 1011.6 hPa North 28.8 km/h 35.4 km/h 68.3% 0.0 mm 165 W/m2
15:29 21.9 °C 16.5 °C 1011.4 hPa North 23.2 km/h 32.2 km/h 71.3% 0.0 mm 357 W/m2
15:34 22.2 °C 16.5 °C 1011.4 hPa NNE 19.4 km/h 27.4 km/h 70.1% 0.0 mm 353 W/m2
15:39 22.4 °C 16.7 °C 1011.4 hPa North 16.8 km/h 20.9 km/h 70% 0.0 mm 288 W/m2
15:44 22.6 °C 16.8 °C 1011.2 hPa North 17.2 km/h 19.3 km/h 70% 0.0 mm 290 W/m2
15:49 22.6 °C 17 °C 1011.1 hPa North 17.6 km/h 22.5 km/h 70.9% 0.0 mm 381 W/m2
15:54 22.7 °C 17.6 °C 1011.0 hPa North 12 km/h 22.5 km/h 73% 0.0 mm 911 W/m2
15:59 23.2 °C 18 °C 1010.9 hPa NNE 12.8 km/h 14.5 km/h 72.7% 0.0 mm 911 W/m2
16:04 23.6 °C 18.1 °C 1010.8 hPa NNE 11.4 km/h 14.5 km/h 71.4% 0.0 mm 896 W/m2
16:09 24 °C 18.5 °C 1010.8 hPa NE 7.9 km/h 14.5 km/h 71.4% 0.0 mm 840 W/m2
16:14 24.3 °C 18.5 °C 1010.8 hPa NE 12.5 km/h 12.9 km/h 70.2% 0.0 mm 733 W/m2
16:19 24.5 °C 18.7 °C 1010.8 hPa NE 12.6 km/h 16.1 km/h 70.3% 0.0 mm 728 W/m2
16:24 24.5 °C 18.7 °C 1010.8 hPa ENE 11 km/h 16.1 km/h 70.4% 0.0 mm 721 W/m2
16:29 24.7 °C 18.9 °C 1010.8 hPa ENE 6.9 km/h 14.5 km/h 70% 0.0 mm 693 W/m2
16:34 24.8 °C 18.8 °C 1010.9 hPa ENE 9.5 km/h 12.9 km/h 69.4% 0.0 mm 689 W/m2
16:39 24.7 °C 18.6 °C 1011.0 hPa NE 12 km/h 12.9 km/h 68.8% 0.0 mm 687 W/m2
16:44 24.5 °C 18.1 °C 1011.0 hPa NNE 7.6 km/h 14.5 km/h 67.5% 0.0 mm 671 W/m2
16:49 24.6 °C 18.4 °C 1011.1 hPa NNE 10.5 km/h 9.7 km/h 68.3% 0.0 mm 663 W/m2
16:54 24.9 °C 18.2 °C 1011.1 hPa NNE 10.1 km/h 12.9 km/h 66.3% 0.0 mm 659 W/m2
16:59 24.9 °C 18.1 °C 1011.0 hPa ENE 8.3 km/h 11.3 km/h 65.7% 0.0 mm 654 W/m2
17:04 25.2 °C 17.9 °C 1010.8 hPa NE 8.3 km/h 11.3 km/h 64.3% 0.0 mm 656 W/m2
17:09 25.1 °C 17.7 °C 1010.8 hPa North 6.1 km/h 11.3 km/h 63.6% 0.0 mm 633 W/m2
17:14 25 °C 17.8 °C 1010.7 hPa North 5.6 km/h 8 km/h 64% 0.0 mm 610 W/m2
17:18 25.2 °C 17.9 °C 1010.7 hPa North 4.1 km/h 4.8 km/h 63.8% 0.0 mm 573 W/m2
17:24 25.7 °C 18.2 °C 1010.8 hPa NNE 4.7 km/h 6.4 km/h 63.1% 0.0 mm 592 W/m2
17:29 26 °C 18 °C 1010.6 hPa NNE 4.4 km/h 6.4 km/h 61.7% 0.0 mm 587 W/m2
17:34 26.2 °C 17.8 °C 1010.5 hPa North 6.1 km/h 6.4 km/h 60.2% 0.0 mm 570 W/m2
17:39 26.2 °C 18 °C 1010.5 hPa North 6.1 km/h 8 km/h 60.7% 0.0 mm 552 W/m2
17:43 26.3 °C 18.3 °C 1010.4 hPa North 5.3 km/h 6.4 km/h 61.2% 0.0 mm 538 W/m2
17:49 26.4 °C 18.4 °C 1010.3 hPa North 4.1 km/h 8 km/h 61.4% 0.0 mm 522 W/m2
17:54 26.5 °C 18.3 °C 1010.3 hPa NNE 5.4 km/h 4.8 km/h 60.7% 0.0 mm 513 W/m2
17:59 26.6 °C 18.4 °C 1010.4 hPa North 6.3 km/h 6.4 km/h 60.7% 0.0 mm 517 W/m2
18:04 26.7 °C 18.2 °C 1010.4 hPa North 6.9 km/h 8 km/h 59.6% 0.0 mm 547 W/m2
18:09 26.6 °C 17.3 °C 1010.5 hPa NNW 5.6 km/h 9.7 km/h 56.7% 0.0 mm 564 W/m2
18:14 26.9 °C 17.3 °C 1010.5 hPa NNW 5.6 km/h 6.4 km/h 55.8% 0.0 mm 533 W/m2
18:19 27 °C 17.2 °C 1010.5 hPa NNW 6.3 km/h 6.4 km/h 55.2% 0.0 mm 490 W/m2
18:24 26.8 °C 17.2 °C 1010.5 hPa NNE 7.1 km/h 8 km/h 55.8% 0.0 mm 485 W/m2
18:28 26.8 °C 17.1 °C 1010.6 hPa North 5.6 km/h 8 km/h 55.2% 0.0 mm 459 W/m2
18:34 26.9 °C 17.3 °C 1010.7 hPa NNE 4.6 km/h 6.4 km/h 55.8% 0.0 mm 455 W/m2
18:39 27 °C 17.3 °C 1010.7 hPa NNE 5.4 km/h 6.4 km/h 55.3% 0.0 mm 431 W/m2
18:44 26.8 °C 17 °C 1010.7 hPa NNE 4.5 km/h 6.4 km/h 55.2% 0.0 mm 396 W/m2
18:49 26.7 °C 17.3 °C 1010.8 hPa North 4.4 km/h 4.8 km/h 56.2% 0.0 mm 380 W/m2
18:54 26.7 °C 17.6 °C 1010.9 hPa North 3.9 km/h 4.8 km/h 57.5% 0.0 mm 357 W/m2
18:59 27.1 °C 18 °C 1010.8 hPa ENE 5.6 km/h 6.3 km/h 57.7% 0.0 mm 338 W/m2
19:04 27.3 °C 17.9 °C 1010.8 hPa ENE 4.8 km/h 9.7 km/h 56.6% 0.0 mm 322 W/m2
19:09 27.3 °C 18.1 °C 1010.9 hPa East 4.9 km/h 4.8 km/h 57.2% 0.0 mm 309 W/m2
19:14 27.3 °C 18.1 °C 1010.9 hPa ESE 5 km/h 8 km/h 57.2% 0.0 mm 301 W/m2
19:19 27 °C 18.2 °C 1010.9 hPa ESE 7.2 km/h 8 km/h 58.5% 0.0 mm 271 W/m2
19:24 26.9 °C 18.4 °C 1010.9 hPa East 5 km/h 9.7 km/h 59.7% 0.0 mm 271 W/m2
19:29 27 °C 18.2 °C 1011.0 hPa East 3.3 km/h 8 km/h 58.5% 0.0 mm 258 W/m2
19:34 27.1 °C 18.3 °C 1011.0 hPa East 4 km/h 4 km/h 58.8% 0.0 mm 237 W/m2
19:39 27.1 °C 18 °C 1011.1 hPa East 7.5 km/h 9.7 km/h 57.7% 0.0 mm 225 W/m2
19:44 27 °C 17.8 °C 1011.1 hPa East 5.4 km/h 9.7 km/h 57% 0.0 mm 209 W/m2
19:49 27.1 °C 18 °C 1011.2 hPa East 6 km/h 8 km/h 57.7% 0.0 mm 188 W/m2
19:54 27.1 °C 18.1 °C 1011.2 hPa East 5.2 km/h 8 km/h 58.2% 0.0 mm 169 W/m2
19:59 27 °C 18.3 °C 1011.3 hPa East 3.7 km/h 8 km/h 59% 0.0 mm 153 W/m2
20:04 26.9 °C 18.5 °C 1011.3 hPa East 3.1 km/h 4.8 km/h 60.2% 0.0 mm 135 W/m2
20:09 27 °C 18.7 °C 1011.3 hPa East 4.6 km/h 5.6 km/h 60.7% 0.0 mm 118 W/m2
20:14 26.7 °C 18.7 °C 1011.3 hPa East 6.4 km/h 8 km/h 61.4% 0.0 mm 104 W/m2
20:19 26.4 °C 19.1 °C 1011.5 hPa ESE 11.1 km/h 9.7 km/h 64.4% 0.0 mm 90 W/m2
20:24 25.8 °C 19.1 °C 1011.6 hPa ESE 9.4 km/h 14.5 km/h 66.8% 0.0 mm 76 W/m2
20:29 25.4 °C 19.1 °C 1011.8 hPa ESE 7.8 km/h 11.3 km/h 67.8% 0.0 mm 63 W/m2
20:34 25.3 °C 19.1 °C 1011.8 hPa SE 6.9 km/h 14.5 km/h 68.7% 0.0 mm 53 W/m2
20:39 25.1 °C 19 °C 1012.0 hPa ESE 16.6 km/h 13.7 km/h 69% 0.0 mm 42 W/m2
20:44 24.8 °C 18.9 °C 1012.0 hPa ESE 14.4 km/h 20.9 km/h 69.8% 0.0 mm 33 W/m2
20:49 24.6 °C 18.9 °C 1012.2 hPa ESE 13 km/h 16.1 km/h 70.6% 0.0 mm 26 W/m2
20:53 24.3 °C 18.8 °C 1012.4 hPa SE 11.3 km/h 14.5 km/h 71.4% 0.0 mm 19 W/m2
20:59 24.1 °C 18.8 °C 1012.5 hPa ESE 11.6 km/h 11.3 km/h 72.3% 0.0 mm 12 W/m2
21:04 24 °C 18.7 °C 1012.6 hPa ESE 14 km/h 14.5 km/h 72.1% 0.0 mm 9 W/m2
21:09 23.9 °C 18.4 °C 1012.6 hPa ESE 14.9 km/h 16.1 km/h 71.2% 0.0 mm 7 W/m2
21:14 23.8 °C 18.2 °C 1012.6 hPa ESE 14.4 km/h 19.3 km/h 71% 0.0 mm 0 W/m2
21:19 23.7 °C 18 °C 1012.6 hPa SE 14.6 km/h 19.3 km/h 70.4% 0.0 mm 0 W/m2
21:24 23.6 °C 18 °C 1012.7 hPa ESE 13 km/h 16.1 km/h 70.6% 0.0 mm 0 W/m2
21:29 23.5 °C 17.9 °C 1012.8 hPa ESE 11.3 km/h 19.3 km/h 70.8% 0.0 mm 0 W/m2
21:34 23.4 °C 17.7 °C 1012.9 hPa East 11.1 km/h 14.5 km/h 70.3% 0.0 mm 0 W/m2
21:39 23.4 °C 17.6 °C 1013.2 hPa ESE 13 km/h 14.5 km/h 70% 0.0 mm 0 W/m2
21:44 23.3 °C 17.5 °C 1013.3 hPa ESE 12.1 km/h 16.1 km/h 70% 0.0 mm 0 W/m2
21:49 23.2 °C 17.5 °C 1013.3 hPa SE 13.8 km/h 19.3 km/h 70.4% 0.0 mm 0 W/m2
21:54 23.1 °C 17.6 °C 1013.5 hPa ESE 13.5 km/h 16.1 km/h 71% 0.0 mm 0 W/m2
21:59 23 °C 17.6 °C 1013.7 hPa SE 13.2 km/h 16.1 km/h 71.5% 0.0 mm 0 W/m2
22:04 22.9 °C 17.6 °C 1013.8 hPa SE 11.9 km/h 16.1 km/h 72% 0.0 mm 0 W/m2
22:09 22.8 °C 17.6 °C 1013.9 hPa ESE 12.7 km/h 16.1 km/h 72.7% 0.0 mm 0 W/m2
22:14 22.7 °C 17.6 °C 1014.0 hPa SE 11.9 km/h 14.5 km/h 73.3% 0.0 mm 0 W/m2
22:19 22.6 °C 17.7 °C 1014.1 hPa ESE 15.2 km/h 14.5 km/h 74% 0.0 mm 0 W/m2
22:24 22.5 °C 17.6 °C 1014.3 hPa ESE 17 km/h 20.9 km/h 74% 0.0 mm 0 W/m2
22:29 22.4 °C 17.5 °C 1014.3 hPa ESE 17.4 km/h 20.9 km/h 74% 0.0 mm 0 W/m2
22:34 22.3 °C 17.6 °C 1014.3 hPa SE 16.1 km/h 22.5 km/h 74.7% 0.0 mm 0 W/m2
22:39 22.2 °C 17.6 °C 1014.3 hPa SE 18.6 km/h 22.5 km/h 75.3% 0.0 mm 0 W/m2
22:44 22.1 °C 17.7 °C 1014.4 hPa ESE 17.9 km/h 19.3 km/h 76.2% 0.0 mm 0 W/m2
22:49 22 °C 17.8 °C 1014.4 hPa ESE 15.1 km/h 20.9 km/h 77% 0.0 mm 0 W/m2
22:54 21.9 °C 17.7 °C 1014.5 hPa ESE 19.3 km/h 19.3 km/h 77% 0.0 mm 0 W/m2
22:59 21.8 °C 17.6 °C 1014.6 hPa ESE 17.4 km/h 22.5 km/h 77% 0.0 mm 0 W/m2
23:04 21.8 °C 17.7 °C 1014.7 hPa ESE 15.4 km/h 19.3 km/h 77.8% 0.0 mm 0 W/m2
23:09 21.7 °C 17.8 °C 1014.7 hPa ESE 17.2 km/h 19.3 km/h 78.2% 0.0 mm 0 W/m2
23:14 21.7 °C 17.8 °C 1014.8 hPa ESE 17.3 km/h 19.3 km/h 78.8% 0.0 mm 0 W/m2
23:19 21.6 °C 17.8 °C 1014.9 hPa SE 19.2 km/h 22.5 km/h 79% 0.0 mm 0 W/m2
23:24 21.5 °C 17.8 °C 1014.9 hPa East 15 km/h 24.1 km/h 79.5% 0.0 mm 0 W/m2
23:29 21.5 °C 17.9 °C 1015.0 hPa East 12.4 km/h 19.3 km/h 80% 0.0 mm 0 W/m2
23:34 21.4 °C 17.9 °C 1015.0 hPa East 9 km/h 14.5 km/h 80.3% 0.0 mm 0 W/m2
Lodi Weather
Compliments of Weather Underground - 3.5 mb